Time;durP1;ratioP1;P1;durP2;ratioP2;P2;SDS_P1;SDS_P2;PMS_P1;PMS_P2;Temp;Humidity;BMP_temperature;BMP_pressure;BME280_temperature;BME280_humidity;BME280_pressure;Samples;Min_cycle;Max_cycle;Signal;HPM_P1;HPM_P2
2022/11/18 00:00:55;;;;;;;12.20;7.20;;;8.20;99.90;;;;;;5024145;28;20284;-69
2022/11/18 00:03:22;;;;;;;12.30;6.33;;;8.10;99.90;;;;;;5019042;28;20317;-68
2022/11/18 00:05:56;;;;;;;10.33;6.20;;;8.10;99.90;;;;;;5025548;28;20220;-70
2022/11/18 00:08:24;;;;;;;14.33;6.23;;;8.40;99.90;;;;;;5016077;28;20246;-68
2022/11/18 00:10:51;;;;;;;14.27;6.63;;;8.20;99.90;;;;;;5023156;28;20631;-67
2022/11/18 00:16:09;;;;;;;16.73;7.60;;;8.10;99.90;;;;;;5019189;28;20212;-68
2022/11/18 00:18:36;;;;;;;12.13;6.67;;;;;;;;;;5020066;28;20778;-68
2022/11/18 00:21:04;;;;;;;11.63;6.70;;;7.90;99.90;;;;;;5020274;28;20660;-68
2022/11/18 00:23:31;;;;;;;13.03;7.53;;;7.90;99.90;;;;;;5026584;28;20255;-68
2022/11/18 00:26:05;;;;;;;13.60;7.23;;;7.90;99.90;;;;;;5019075;28;20314;-68
2022/11/18 00:28:33;;;;;;;13.87;6.87;;;7.90;99.90;;;;;;5018617;28;20300;-68
2022/11/18 00:31:02;;;;;;;16.83;6.87;;;7.90;99.90;;;;;;5016967;28;20206;-68
2022/11/18 00:33:29;;;;;;;14.20;7.03;;;7.90;99.90;;;;;;5021814;28;20215;-68
2022/11/18 00:35:56;;;;;;;13.90;7.57;;;7.90;99.90;;;;;;5023275;28;20307;-68
2022/11/18 00:38:24;;;;;;;18.40;8.83;;;8.00;99.90;;;;;;5023847;28;20242;-69
2022/11/18 00:41:07;;;;;;;13.60;8.10;;;7.90;99.90;;;;;;5019964;28;20305;-68
2022/11/18 00:43:34;;;;;;;17.93;7.27;;;8.00;99.90;;;;;;5019958;28;20697;-68
2022/11/18 00:46:00;;;;;;;11.50;7.43;;;8.00;99.90;;;;;;5019203;28;20202;-69
2022/11/18 00:48:27;;;;;;;16.50;7.27;;;8.00;99.90;;;;;;5019555;28;20298;-69
2022/11/18 00:50:57;;;;;;;17.67;7.27;;;8.10;99.90;;;;;;5021335;28;20315;-69
2022/11/18 00:53:27;;;;;;;21.77;7.73;;;8.10;99.90;;;;;;5019459;28;20213;-69
2022/11/18 00:55:53;;;;;;;13.93;7.30;;;8.10;99.90;;;;;;5023289;28;20220;-68
2022/11/18 00:58:20;;;;;;;16.57;8.47;;;8.10;99.90;;;;;;5018670;28;20307;-69
2022/11/18 01:00:50;;;;;;;14.93;7.53;;;8.20;99.90;;;;;;5022178;28;20210;-68
2022/11/18 01:03:18;;;;;;;14.17;7.30;;;8.20;99.90;;;;;;5023180;28;20294;-68
2022/11/18 01:05:45;;;;;;;15.10;7.17;;;8.20;99.90;;;;;;5021414;28;20234;-68
2022/11/18 01:08:12;;;;;;;16.87;7.63;;;8.10;99.90;;;;;;5019774;28;20202;-69
2022/11/18 01:10:40;;;;;;;13.33;6.97;;;8.10;99.90;;;;;;5019366;28;20324;-69
2022/11/18 01:13:21;;;;;;;15.53;7.00;;;8.10;99.90;;;;;;5019149;28;20599;-68
2022/11/18 01:15:53;;;;;;;17.23;6.97;;;8.10;99.90;;;;;;5018639;28;20301;-68
2022/11/18 01:18:26;;;;;;;11.17;6.23;;;8.00;99.90;;;;;;5020802;28;20331;-68
2022/11/18 01:20:53;;;;;;;14.03;7.33;;;8.00;99.90;;;;;;5020202;28;20314;-68
2022/11/18 01:23:20;;;;;;;13.53;7.10;;;8.00;99.90;;;;;;5025513;28;20205;-68
2022/11/18 01:25:48;;;;;;;16.90;7.17;;;7.90;99.90;;;;;;5019860;28;20210;-68
2022/11/18 01:28:17;;;;;;;13.40;7.47;;;7.90;99.90;;;;;;5020131;28;20297;-69
2022/11/18 01:30:49;;;;;;;19.97;7.50;;;7.90;99.90;;;;;;5021450;28;20308;-68
2022/11/18 01:33:16;;;;;;;16.97;7.40;;;7.90;99.90;;;;;;5023173;28;20206;-69
2022/11/18 01:35:43;;;;;;;14.27;7.80;;;7.90;99.90;;;;;;5021727;28;20329;-69
2022/11/18 01:38:12;;;;;;;14.60;7.93;;;7.90;99.90;;;;;;5020568;28;20316;-68
2022/11/18 01:40:39;;;;;;;16.60;7.20;;;7.80;99.90;;;;;;5020372;28;20239;-70
2022/11/18 01:43:13;;;;;;;12.67;6.70;;;7.80;99.90;;;;;;5024790;28;20412;-68
2022/11/18 01:45:42;;;;;;;16.07;7.00;;;7.80;99.90;;;;;;5023392;28;20199;-69
2022/11/18 01:48:27;;;;;;;11.90;7.47;;;7.80;99.90;;;;;;5024911;28;20254;-68
2022/11/18 01:51:11;;;;;;;17.87;7.57;;;7.70;99.90;;;;;;5025756;28;20221;-69
2022/11/18 01:53:42;;;;;;;14.83;7.30;;;7.70;99.90;;;;;;5018174;28;20299;-69
2022/11/18 01:56:17;;;;;;;19.43;8.93;;;7.70;99.90;;;;;;5021634;28;20208;-69
2022/11/18 01:59:02;;;;;;;13.90;8.03;;;7.70;99.90;;;;;;5020724;28;20239;-68
2022/11/18 02:01:29;;;;;;;13.50;7.80;;;7.70;99.90;;;;;;5021236;28;20332;-68
2022/11/18 02:03:55;;;;;;;16.80;7.80;;;7.80;99.90;;;;;;5026133;28;20313;-68
2022/11/18 02:06:22;;;;;;;14.00;7.30;;;7.70;99.90;;;;;;5021470;28;20837;-68
2022/11/18 02:08:50;;;;;;;17.60;8.33;;;7.80;99.90;;;;;;5021997;28;20954;-69
2022/11/18 02:14:07;;;;;;;18.50;7.57;;;7.80;99.90;;;;;;5027314;28;20640;-68
2022/11/18 02:16:48;;;;;;;17.97;7.47;;;7.80;99.90;;;;;;5020214;28;20309;-68
2022/11/18 02:19:24;;;;;;;13.73;7.77;;;7.80;99.90;;;;;;5023861;28;20242;-68
2022/11/18 02:21:53;;;;;;;20.23;7.77;;;7.80;99.90;;;;;;5022872;28;20702;-68
2022/11/18 02:24:26;;;;;;;17.33;8.50;;;7.90;99.90;;;;;;5025521;28;20530;-69
2022/11/18 02:27:06;;;;;;;16.03;8.10;;;7.90;99.90;;;;;;5024457;28;20207;-69
2022/11/18 02:30:09;;;;;;;14.03;7.80;;;7.90;99.90;;;;;;5023315;28;20223;-69
2022/11/18 02:33:06;;;;;;;15.30;8.07;;;7.90;99.90;;;;;;5009215;28;20224;-69
2022/11/18 02:35:48;;;;;;;19.37;8.57;;;7.90;99.90;;;;;;5023372;28;20257;-68
2022/11/18 02:38:22;;;;;;;17.40;7.57;;;8.00;99.90;;;;;;5024315;28;20845;-69
2022/11/18 02:40:54;;;;;;;14.67;8.17;;;8.00;99.90;;;;;;5021366;28;20295;-69
2022/11/18 02:43:26;;;;;;;14.60;8.23;;;8.00;99.90;;;;;;5021200;28;20761;-68
2022/11/18 02:45:59;;;;;;;15.30;7.67;;;8.10;99.90;;;;;;5020862;28;20231;-67
2022/11/18 02:48:29;;;;;;;19.00;8.07;;;8.10;99.90;;;;;;5009126;28;20297;-69
2022/11/18 02:50:57;;;;;;;14.57;7.37;;;8.10;99.90;;;;;;5025022;28;20224;-68
2022/11/18 02:53:26;;;;;;;22.87;8.10;;;8.10;99.90;;;;;;5022214;28;20295;-69
2022/11/18 02:55:54;;;;;;;19.73;8.27;;;8.20;99.90;;;;;;5021108;28;20208;-69
2022/11/18 02:58:22;;;;;;;22.57;8.43;;;8.20;99.90;;;;;;5017017;28;20225;-68
2022/11/18 03:00:56;;;;;;;15.70;8.17;;;8.20;99.90;;;;;;5022430;28;20374;-69
2022/11/18 03:03:30;;;;;;;16.13;7.73;;;8.30;99.90;;;;;;5020770;28;20564;-68
2022/11/18 03:06:06;;;;;;;19.50;8.10;;;8.30;99.90;;;;;;5023763;28;20225;-68
2022/11/18 03:08:46;;;;;;;19.80;7.67;;;8.30;99.90;;;;;;5017960;28;20206;-69
2022/11/18 03:11:19;;;;;;;17.57;7.90;;;8.30;99.90;;;;;;5020405;28;20213;-69
2022/11/18 03:14:21;;;;;;;13.37;7.10;;;8.30;99.90;;;;;;5023742;28;20315;-68
2022/11/18 03:17:29;;;;;;;16.00;7.73;;;8.30;99.90;;;;;;5022734;28;20208;-69
2022/11/18 03:20:16;;;;;;;18.10;7.83;;;8.30;99.90;;;;;;5019533;28;20242;-68
2022/11/18 03:23:17;;;;;;;18.17;8.30;;;8.30;99.90;;;;;;5016883;28;20274;-69
2022/11/18 03:25:50;;;;;;;15.07;8.57;;;8.30;99.90;;;;;;5021829;28;20593;-68
2022/11/18 03:28:32;;;;;;;17.93;7.73;;;8.30;99.90;;;;;;5020763;28;20366;-68
2022/11/18 03:31:02;;;;;;;17.47;7.27;;;8.30;99.90;;;;;;5016916;28;20296;-69
2022/11/18 03:33:37;;;;;;;17.37;8.17;;;8.40;99.90;;;;;;5024378;28;20291;-69
2022/11/18 03:36:06;;;;;;;15.23;8.27;;;8.40;99.90;;;;;;5023118;28;20362;-69
2022/11/18 03:38:38;;;;;;;18.37;8.50;;;8.40;99.90;;;;;;5025818;28;20311;-67
2022/11/18 03:41:09;;;;;;;17.97;7.87;;;8.40;99.90;;;;;;5020807;28;20685;-69
2022/11/18 03:43:41;;;;;;;14.60;7.60;;;8.40;99.90;;;;;;5023226;28;20665;-68
2022/11/18 03:46:20;;;;;;;18.10;9.57;;;8.50;99.90;;;;;;5021954;28;20244;-68
2022/11/18 03:48:53;;;;;;;13.43;7.60;;;8.50;99.90;;;;;;5017109;28;20692;-69
2022/11/18 03:51:32;;;;;;;15.43;8.57;;;8.50;99.90;;;;;;5022334;28;20740;-68
2022/11/18 03:54:16;;;;;;;16.07;8.00;;;8.50;99.90;;;;;;5025349;28;20212;-68
2022/11/18 03:56:48;;;;;;;18.70;9.27;;;8.50;99.90;;;;;;5025839;28;20674;-68
2022/11/18 03:59:17;;;;;;;12.77;7.83;;;8.50;99.90;;;;;;5022350;28;20668;-69
2022/11/18 04:02:09;;;;;;;13.90;8.13;;;8.50;99.90;;;;;;5018578;28;20590;-70
2022/11/18 04:04:39;;;;;;;15.23;8.87;;;8.60;99.90;;;;;;5023101;28;20208;-70
2022/11/18 04:07:17;;;;;;;19.13;8.53;;;8.50;99.90;;;;;;5019542;28;20221;-70
2022/11/18 04:09:58;;;;;;;20.53;9.37;;;8.60;99.90;;;;;;5021361;28;20358;-68
2022/11/18 04:12:30;;;;;;;16.47;7.83;;;8.60;99.90;;;;;;5021454;28;20519;-68
2022/11/18 04:14:58;;;;;;;21.80;8.43;;;8.60;99.90;;;;;;5022336;28;20292;-69
2022/11/18 04:17:27;;;;;;;16.57;8.83;;;8.60;99.90;;;;;;5021928;28;20228;-69
2022/11/18 04:19:54;;;;;;;15.83;9.13;;;8.60;99.90;;;;;;5019127;28;20321;-69
2022/11/18 04:22:21;;;;;;;20.17;9.13;;;8.60;99.90;;;;;;5020253;28;20308;-69
2022/11/18 04:24:48;;;;;;;20.13;10.10;;;8.60;99.90;;;;;;5024853;28;20286;-69
2022/11/18 04:27:15;;;;;;;17.63;9.27;;;8.70;99.90;;;;;;5019862;28;20208;-68
2022/11/18 04:29:41;;;;;;;19.47;10.20;;;8.70;99.90;;;;;;5021479;28;20334;-69
2022/11/18 04:32:08;;;;;;;22.27;10.13;;;8.60;99.90;;;;;;5018814;28;20712;-68
2022/11/18 04:34:35;;;;;;;18.73;9.50;;;8.70;99.90;;;;;;5018491;28;20304;-69
2022/11/18 04:37:02;;;;;;;16.57;9.33;;;8.70;99.90;;;;;;5018827;28;20312;-69
2022/11/18 04:39:28;;;;;;;21.30;8.33;;;8.70;99.90;;;;;;5020247;28;20323;-69
2022/11/18 04:41:55;;;;;;;20.23;9.73;;;8.70;99.90;;;;;;5020838;28;20571;-69
2022/11/18 04:44:23;;;;;;;19.07;9.30;;;8.70;99.90;;;;;;5022748;28;20279;-69
2022/11/18 04:46:50;;;;;;;14.50;9.27;;;8.70;99.90;;;;;;5020319;28;20292;-70
2022/11/18 04:49:17;;;;;;;18.80;9.10;;;8.80;99.90;;;;;;5022403;28;20229;-68
2022/11/18 04:51:45;;;;;;;17.70;9.97;;;8.80;99.90;;;;;;5015708;28;20680;-69
2022/11/18 04:54:13;;;;;;;19.37;9.13;;;8.80;99.90;;;;;;5021672;28;20252;-68
2022/11/18 04:56:41;;;;;;;25.43;9.90;;;8.80;99.90;;;;;;5018864;28;20699;-69
2022/11/18 04:59:18;;;;;;;17.77;8.83;;;8.80;99.90;;;;;;5022273;28;20243;-69
2022/11/18 05:01:46;;;;;;;17.43;10.13;;;8.90;99.90;;;;;;5018668;28;20247;-69
2022/11/18 05:04:16;;;;;;;16.67;9.90;;;9.00;99.90;;;;;;5024458;28;20537;-70
2022/11/18 05:06:42;;;;;;;20.27;10.13;;;8.90;99.90;;;;;;5018208;28;20312;-69
2022/11/18 05:09:10;;;;;;;14.07;9.03;;;8.80;99.90;;;;;;5018764;28;20201;-68
2022/11/18 05:14:26;;;;;;;17.97;9.40;;;8.90;99.90;;;;;;5017580;28;20329;-69
2022/11/18 05:16:54;;;;;;;18.33;8.77;;;8.90;99.90;;;;;;5018428;28;20597;-69
2022/11/18 05:19:21;;;;;;;18.37;9.87;;;8.90;99.90;;;;;;5022971;28;20269;-69
2022/11/18 05:21:48;;;;;;;18.33;9.90;;;8.90;99.90;;;;;;5022030;28;20597;-68
2022/11/18 05:24:15;;;;;;;19.37;9.37;;;8.80;99.90;;;;;;5022981;28;20254;-69
2022/11/18 05:26:41;;;;;;;21.93;10.03;;;8.90;99.90;;;;;;5025408;28;20580;-68
2022/11/18 05:29:08;;;;;;;18.03;9.73;;;8.90;99.90;;;;;;5024245;28;20212;-68
2022/11/18 05:31:35;;;;;;;21.47;10.03;;;8.90;99.90;;;;;;5027968;28;20352;-68
2022/11/18 05:34:02;;;;;;;18.90;9.80;;;8.90;99.90;;;;;;5029064;28;20288;-68
2022/11/18 05:36:29;;;;;;;21.17;10.43;;;8.90;99.90;;;;;;5026648;28;20244;-69
2022/11/18 05:38:59;;;;;;;18.50;9.97;;;8.90;99.90;;;;;;5019207;28;20265;-69
2022/11/18 05:44:11;;;;;;;20.27;10.23;;;8.90;99.90;;;;;;5022271;28;20298;-69
2022/11/18 05:46:38;;;;;;;22.70;10.83;;;8.90;99.90;;;;;;5023000;28;20220;-69
2022/11/18 05:49:05;;;;;;;20.00;10.00;;;8.90;99.90;;;;;;5027959;28;20689;-68
2022/11/18 05:51:32;;;;;;;21.43;10.63;;;8.90;99.90;;;;;;5029171;28;20217;-68
2022/11/18 05:54:06;;;;;;;24.27;10.20;;;8.90;99.90;;;;;;5050603;28;20281;-69
2022/11/18 05:56:39;;;;;;;19.87;9.53;;;9.00;99.90;;;;;;5026579;28;20592;-68
2022/11/18 05:59:07;;;;;;;21.30;9.83;;;9.00;99.90;;;;;;5046953;28;20612;-69
2022/11/18 06:01:45;;;;;;;19.83;9.77;;;9.00;99.90;;;;;;5042457;28;20313;-69
2022/11/18 06:04:31;;;;;;;21.80;10.67;;;9.00;99.90;;;;;;5041804;28;20212;-69
2022/11/18 06:07:04;;;;;;;21.63;10.27;;;9.00;99.90;;;;;;5047301;28;20569;-68
2022/11/18 06:09:35;;;;;;;21.57;10.07;;;9.00;99.90;;;;;;5048484;28;20676;-68
2022/11/18 06:12:04;;;;;;;20.87;10.53;;;9.00;99.90;;;;;;5047768;28;20205;-70
2022/11/18 06:14:40;;;;;;;24.83;10.97;;;9.10;99.90;;;;;;5046189;28;20200;-69
2022/11/18 06:17:13;;;;;;;20.30;11.13;;;9.10;99.90;;;;;;5042046;28;20287;-70
2022/11/18 06:19:40;;;;;;;24.17;10.43;;;9.10;99.90;;;;;;5044924;28;20331;-68
2022/11/18 06:22:08;;;;;;;17.77;10.20;;;9.10;99.90;;;;;;5040207;28;20581;-69
2022/11/18 06:24:36;;;;;;;27.00;11.17;;;9.10;99.90;;;;;;5043811;28;20581;-69
2022/11/18 06:27:03;;;;;;;23.20;11.23;;;9.20;99.90;;;;;;5032346;28;20240;-69
2022/11/18 06:29:30;;;;;;;23.77;11.00;;;9.20;99.90;;;;;;5041475;28;20371;-68
2022/11/18 06:31:57;;;;;;;20.10;10.27;;;9.20;99.90;;;;;;5041093;28;20299;-68
2022/11/18 06:34:23;;;;;;;19.40;10.43;;;9.10;99.90;;;;;;5058889;28;20647;-68
2022/11/18 06:36:53;;;;;;;22.13;11.07;;;9.10;99.90;;;;;;5045076;28;20772;-68
2022/11/18 06:39:20;;;;;;;19.50;10.83;;;9.10;99.90;;;;;;5048358;28;20701;-69
2022/11/18 06:41:47;;;;;;;21.63;10.00;;;9.00;99.90;;;;;;5030772;28;21482;-68
2022/11/18 06:44:14;;;;;;;19.10;11.07;;;9.00;99.90;;;;;;5050309;28;20219;-69
2022/11/18 06:46:56;;;;;;;20.70;10.30;;;9.00;99.90;;;;;;5042082;28;20213;-68
2022/11/18 06:49:25;;;;;;;24.83;10.73;;;9.00;99.90;;;;;;5043014;28;20234;-69
2022/11/18 06:51:51;;;;;;;16.47;10.10;;;9.00;99.90;;;;;;5044158;28;20314;-69
2022/11/18 06:54:19;;;;;;;22.43;10.60;;;8.90;99.90;;;;;;5044396;28;20302;-68
2022/11/18 06:56:46;;;;;;;25.50;11.27;;;8.90;99.90;;;;;;5043306;28;20690;-69
2022/11/18 06:59:12;;;;;;;22.97;10.53;;;8.80;99.90;;;;;;5041674;28;20236;-69
2022/11/18 07:01:41;;;;;;;24.73;11.57;;;8.80;99.90;;;;;;5045245;28;20216;-68
2022/11/18 07:04:07;;;;;;;27.27;11.90;;;8.80;99.90;;;;;;5048319;28;20270;-70
2022/11/18 07:06:35;;;;;;;24.83;11.17;;;8.80;99.90;;;;;;5040704;28;20232;-67
2022/11/18 07:09:04;;;;;;;25.50;12.33;;;8.80;99.90;;;;;;5039497;28;20674;-68
2022/11/18 07:11:31;;;;;;;26.10;12.90;;;8.80;99.90;;;;;;5045742;28;20216;-68
2022/11/18 07:13:59;;;;;;;27.93;12.27;;;8.80;99.90;;;;;;5048151;28;20207;-70
2022/11/18 07:16:26;;;;;;;21.63;12.57;;;8.90;99.90;;;;;;5042106;28;20216;-69
2022/11/18 07:18:54;;;;;;;29.67;13.37;;;8.90;99.90;;;;;;5041225;28;20378;-69
2022/11/18 07:21:23;;;;;;;28.23;13.10;;;8.90;99.90;;;;;;5038584;28;20315;-70
2022/11/18 07:23:51;;;;;;;27.53;12.83;;;8.90;99.90;;;;;;5037658;28;20208;-69
2022/11/18 07:26:18;;;;;;;23.00;13.10;;;8.90;99.90;;;;;;5056499;28;20230;-69
2022/11/18 07:28:45;;;;;;;26.47;13.50;;;9.00;99.90;;;;;;5042053;28;20235;-69
2022/11/18 07:31:17;;;;;;;30.37;12.87;;;9.00;99.90;;;;;;5042367;28;20208;-69
2022/11/18 07:33:45;;;;;;;29.03;12.60;;;9.10;99.90;;;;;;5045721;28;20665;-69
2022/11/18 07:36:24;;;;;;;23.77;12.17;;;9.10;99.90;;;;;;5043127;28;20578;-68
2022/11/18 07:38:52;;;;;;;23.80;12.10;;;9.10;99.90;;;;;;5054570;28;20732;-69
2022/11/18 07:41:27;;;;;;;26.13;13.20;;;9.10;99.90;;;;;;5045874;28;20311;-68
2022/11/18 07:43:56;;;;;;;26.37;13.20;;;9.20;99.90;;;;;;5047655;28;20208;-69
2022/11/18 07:46:34;;;;;;;24.43;12.70;;;9.20;99.90;;;;;;5025553;28;20304;-69
2022/11/18 07:49:04;;;;;;;31.53;13.20;;;9.20;99.90;;;;;;5041688;28;20224;-69
2022/11/18 07:51:33;;;;;;;26.60;12.20;;;9.20;99.90;;;;;;5040000;28;20728;-69
2022/11/18 07:54:04;;;;;;;27.63;13.20;;;9.20;99.90;;;;;;5043521;28;20596;-68
2022/11/18 07:56:31;;;;;;;24.87;12.00;;;9.30;99.90;;;;;;5053675;28;20191;-67
2022/11/18 07:58:58;;;;;;;24.17;12.40;;;9.30;99.90;;;;;;5034739;28;20525;-68
2022/11/18 08:01:29;;;;;;;27.10;12.93;;;9.40;99.90;;;;;;5044524;28;20221;-69
2022/11/18 08:04:02;;;;;;;24.63;12.90;;;9.40;99.90;;;;;;5046286;28;20197;-70
2022/11/18 08:06:32;;;;;;;25.67;12.80;;;9.40;99.90;;;;;;5041989;28;20249;-68
2022/11/18 08:08:58;;;;;;;26.47;12.50;;;9.50;99.90;;;;;;5045073;28;20292;-68
2022/11/18 08:11:25;;;;;;;24.43;12.40;;;9.50;99.90;;;;;;5043724;28;20572;-69
2022/11/18 08:13:52;;;;;;;25.10;13.10;;;9.60;99.90;;;;;;5040991;28;20305;-69
2022/11/18 08:16:21;;;;;;;27.83;11.40;;;9.60;99.90;;;;;;5042751;28;20213;-70
2022/11/18 08:18:48;;;;;;;31.77;12.20;;;9.70;99.90;;;;;;5038667;28;20296;-69
2022/11/18 08:21:17;;;;;;;27.30;11.73;;;9.70;99.90;;;;;;5044057;28;20244;-68
2022/11/18 08:23:52;;;;;;;27.17;12.30;;;9.70;99.90;;;;;;5040189;28;20210;-69
2022/11/18 08:26:19;;;;;;;25.17;11.80;;;9.70;99.90;;;;;;5045046;28;20207;-69
2022/11/18 08:28:46;;;;;;;20.17;10.83;;;9.70;99.90;;;;;;5042743;28;20205;-69
2022/11/18 08:31:25;;;;;;;25.33;11.97;;;9.80;99.90;;;;;;5043290;28;20217;-69
2022/11/18 08:34:04;;;;;;;20.13;11.47;;;9.70;99.90;;;;;;5041919;28;20312;-69
2022/11/18 08:36:34;;;;;;;23.30;10.97;;;9.80;99.90;;;;;;5042705;28;20233;-68
2022/11/18 08:39:03;;;;;;;22.57;11.00;;;9.70;99.90;;;;;;5043228;28;20254;-69
2022/11/18 08:41:36;;;;;;;24.57;11.13;;;9.80;99.90;;;;;;5042739;28;20387;-69
2022/11/18 08:44:03;;;;;;;21.43;10.97;;;9.80;99.90;;;;;;5044037;28;20216;-69
2022/11/18 08:46:30;;;;;;;24.07;12.30;;;9.80;99.90;;;;;;5039481;28;20268;-68
2022/11/18 08:48:57;;;;;;;20.27;12.50;;;9.80;99.90;;;;;;5043780;28;20231;-69
2022/11/18 08:51:25;;;;;;;21.87;11.83;;;9.80;99.90;;;;;;5040566;28;20330;-69
2022/11/18 08:53:51;;;;;;;22.90;12.03;;;9.80;99.90;;;;;;5034459;28;20259;-69
2022/11/18 08:56:20;;;;;;;20.20;11.47;;;9.90;99.90;;;;;;5026452;28;20582;-68
2022/11/18 08:58:47;;;;;;;24.90;12.13;;;9.80;99.90;;;;;;5045880;28;20215;-69
2022/11/18 09:01:15;;;;;;;24.23;11.80;;;9.90;99.90;;;;;;5044309;28;20254;-69
2022/11/18 09:03:41;;;;;;;23.63;12.07;;;9.90;99.90;;;;;;5029068;28;20272;-69
2022/11/18 09:06:14;;;;;;;25.30;12.87;;;9.90;99.90;;;;;;5044901;28;20222;-68
2022/11/18 09:08:40;;;;;;;27.13;12.70;;;10.00;99.90;;;;;;5047716;28;20193;-69
2022/11/18 09:11:10;;;;;;;22.37;12.23;;;10.00;99.90;;;;;;5032991;28;20673;-68
2022/11/18 09:13:37;;;;;;;23.50;12.63;;;10.00;99.90;;;;;;5046692;28;20330;-68
2022/11/18 09:16:25;;;;;;;23.20;11.90;;;10.10;99.90;;;;;;5048100;28;20682;-69
2022/11/18 09:18:55;;;;;;;18.17;11.03;;;10.20;99.90;;;;;;5044742;28;20222;-68
2022/11/18 09:21:23;;;;;;;24.70;11.03;;;10.20;99.90;;;;;;5048689;28;20236;-69
2022/11/18 09:23:50;;;;;;;22.40;11.70;;;10.10;99.90;;;;;;5044005;28;20202;-69
2022/11/18 09:26:19;;;;;;;19.07;11.23;;;10.20;99.90;;;;;;5049519;28;20207;-69
2022/11/18 09:28:46;;;;;;;17.10;10.70;;;10.20;99.90;;;;;;5045607;28;20804;-68
2022/11/18 09:31:16;;;;;;;20.33;10.37;;;10.30;99.90;;;;;;5048822;28;20201;-69
2022/11/18 09:33:44;;;;;;;17.50;10.43;;;10.30;99.90;;;;;;5041918;28;20210;-69
2022/11/18 09:36:21;;;;;;;16.13;10.13;;;10.40;99.90;;;;;;5046966;28;20264;-69
2022/11/18 09:38:49;;;;;;;18.93;10.57;;;10.40;99.90;;;;;;5046285;28;20623;-70
2022/11/18 09:41:37;;;;;;;21.83;10.63;;;10.40;99.90;;;;;;5048140;28;20315;-69
2022/11/18 09:44:41;;;;;;;17.57;9.83;;;10.50;99.90;;;;;;5048025;28;20673;-69
2022/11/18 09:47:27;;;;;;;16.70;10.73;;;10.50;99.90;;;;;;5045821;28;20232;-68
2022/11/18 09:50:02;;;;;;;17.47;10.10;;;10.50;99.90;;;;;;5043548;28;20285;-69
2022/11/18 09:52:52;;;;;;;18.37;9.90;;;10.50;99.90;;;;;;5042874;28;20227;-68
2022/11/18 09:55:19;;;;;;;16.73;9.87;;;10.50;99.90;;;;;;5046454;28;20590;-68
2022/11/18 09:57:57;;;;;;;13.03;9.73;;;10.40;99.90;;;;;;5043645;28;20460;-69
2022/11/18 10:00:26;;;;;;;14.93;9.47;;;10.40;99.90;;;;;;5046534;28;20233;-69
2022/11/18 10:03:06;;;;;;;14.97;9.97;;;10.40;99.90;;;;;;5043858;28;20208;-69
2022/11/18 10:05:49;;;;;;;19.33;10.70;;;10.40;99.90;;;;;;5040856;28;20232;-68
2022/11/18 10:08:40;;;;;;;16.30;10.17;;;10.40;99.90;;;;;;5046558;28;20262;-69
2022/11/18 10:11:16;;;;;;;13.07;9.07;;;10.40;99.90;;;;;;5046648;28;20335;-68
2022/11/18 10:14:17;;;;;;;14.67;9.60;;;10.40;99.90;;;;;;5040963;28;20337;-68
2022/11/18 10:17:16;;;;;;;16.37;9.63;;;10.40;99.90;;;;;;5043903;28;20666;-68
2022/11/18 10:19:53;;;;;;;16.43;9.90;;;10.40;99.90;;;;;;5046100;28;20208;-69
2022/11/18 10:23:04;;;;;;;13.77;9.03;;;10.40;99.90;;;;;;5042337;28;20225;-69
2022/11/18 10:25:30;;;;;;;14.53;9.23;;;10.30;99.90;;;;;;5040879;28;20210;-69
2022/11/18 10:28:13;;;;;;;16.90;10.60;;;10.30;99.90;;;;;;5048439;28;20209;-69
2022/11/18 10:30:40;;;;;;;13.30;8.90;;;10.30;99.90;;;;;;5052285;28;20230;-68
2022/11/18 10:33:27;;;;;;;14.33;9.20;;;10.30;99.90;;;;;;5045211;28;21040;-69
2022/11/18 10:36:15;;;;;;;16.77;9.67;;;10.40;99.90;;;;;;5046773;28;20546;-68
2022/11/18 10:38:43;;;;;;;14.17;8.30;;;10.40;99.90;;;;;;5045506;28;20214;-68
2022/11/18 10:41:19;;;;;;;15.90;9.47;;;10.40;99.90;;;;;;5045408;28;20236;-69
2022/11/18 10:43:54;;;;;;;14.70;9.43;;;10.60;99.90;;;;;;5046497;28;20564;-69
2022/11/18 10:46:31;;;;;;;15.87;8.03;;;10.50;99.90;;;;;;5039837;28;20299;-69
2022/11/18 10:49:07;;;;;;;12.37;9.20;;;10.60;99.90;;;;;;5060406;28;20241;-69
2022/11/18 10:51:35;;;;;;;13.80;8.43;;;10.60;99.90;;;;;;5030371;28;20583;-70
2022/11/18 10:54:28;;;;;;;12.00;9.07;;;10.60;99.90;;;;;;5046572;28;20785;-69
2022/11/18 10:57:12;;;;;;;16.47;8.77;;;10.60;99.90;;;;;;5031030;28;20212;-70
2022/11/18 10:59:55;;;;;;;13.43;9.27;;;10.70;99.90;;;;;;5048553;28;20205;-67
2022/11/18 11:02:30;;;;;;;12.77;7.80;;;10.70;99.90;;;;;;5045673;28;20568;-68
2022/11/18 11:05:00;;;;;;;13.30;7.97;;;10.80;99.90;;;;;;5046233;28;20326;-70
2022/11/18 11:07:30;;;;;;;12.57;7.50;;;10.90;99.90;;;;;;5044279;28;20320;-68
2022/11/18 11:10:01;;;;;;;13.80;7.03;;;11.00;99.90;;;;;;5045162;28;20239;-69
2022/11/18 11:12:32;;;;;;;10.87;7.10;;;11.10;99.90;;;;;;5042877;28;20292;-69
2022/11/18 11:15:09;;;;;;;12.63;7.73;;;11.20;99.90;;;;;;5056295;28;20725;-68
2022/11/18 11:17:38;;;;;;;13.27;8.47;;;11.30;99.90;;;;;;5043554;28;21270;-70
2022/11/18 11:20:20;;;;;;;12.50;7.70;;;11.40;99.90;;;;;;5041175;28;20254;-69
2022/11/18 11:22:49;;;;;;;10.90;6.97;;;11.60;99.90;;;;;;5042750;28;20251;-69
2022/11/18 11:25:35;;;;;;;11.17;7.20;;;11.70;99.90;;;;;;5027320;28;20245;-67
2022/11/18 11:28:37;;;;;;;9.93;7.53;;;11.70;99.90;;;;;;5043942;28;20207;-70
2022/11/18 11:31:23;;;;;;;15.57;6.93;;;11.90;99.90;;;;;;5065096;28;20211;-69
2022/11/18 11:33:50;;;;;;;9.03;5.83;;;12.00;99.90;;;;;;5054119;28;20203;-70
2022/11/18 11:36:50;;;;;;;10.77;6.50;;;12.00;99.90;;;;;;5042314;28;20229;-68
2022/11/18 11:39:46;;;;;;;11.23;6.63;;;12.00;99.90;;;;;;5040973;28;20300;-68
2022/11/18 11:42:18;;;;;;;10.53;6.43;;;11.90;99.90;;;;;;5040964;28;20701;-68
2022/11/18 11:45:13;;;;;;;13.23;7.07;;;11.80;99.90;;;;;;5053518;28;20673;-69
2022/11/18 11:48:10;;;;;;;14.67;7.00;;;11.70;99.90;;;;;;5036770;28;20291;-70
2022/11/18 11:50:52;;;;;;;11.33;7.20;;;11.60;99.90;;;;;;5046308;28;20407;-68
2022/11/18 11:53:41;;;;;;;17.67;7.97;;;11.60;99.90;;;;;;5046519;28;20551;-68
2022/11/18 11:56:14;;;;;;;14.27;7.23;;;11.70;99.90;;;;;;5040147;28;20304;-69
2022/11/18 11:59:14;;;;;;;12.63;7.83;;;11.70;99.90;;;;;;5040913;28;20331;-68
2022/11/18 12:02:10;;;;;;;10.77;7.43;;;11.70;99.90;;;;;;5022486;28;20245;-67
2022/11/18 12:04:50;;;;;;;14.70;8.03;;;11.80;99.90;;;;;;5022091;28;20204;-69
2022/11/18 12:07:44;;;;;;;12.47;7.93;;;11.80;99.90;;;;;;5036516;28;20228;-69
2022/11/18 12:10:29;;;;;;;12.30;8.13;;;11.80;99.90;;;;;;5046399;28;20213;-69
2022/11/18 12:13:07;;;;;;;14.37;7.57;;;11.80;99.90;;;;;;5052817;28;20228;-68
2022/11/18 12:16:08;;;;;;;10.50;8.60;;;11.80;99.90;;;;;;5050014;28;20204;-69
2022/11/18 12:18:47;;;;;;;8.07;7.17;;;11.80;99.90;;;;;;5051337;28;20636;-68
2022/11/18 12:21:50;;;;;;;14.57;7.37;;;11.80;99.90;;;;;;5048173;28;20231;-69
2022/11/18 12:24:29;;;;;;;13.93;8.47;;;11.90;99.90;;;;;;5043529;28;20271;-69
2022/11/18 12:26:59;;;;;;;9.80;7.87;;;11.90;99.90;;;;;;5042088;28;20202;-69
2022/11/18 12:29:32;;;;;;;13.80;7.73;;;11.90;99.90;;;;;;5018792;28;20224;-69
2022/11/18 12:32:00;;;;;;;18.90;8.20;;;11.90;99.90;;;;;;5044158;28;20204;-69
2022/11/18 12:34:31;;;;;;;12.00;7.63;;;11.80;99.90;;;;;;5053680;28;20329;-70
2022/11/18 12:37:21;;;;;;;9.27;7.37;;;11.80;99.90;;;;;;5043926;28;20238;-67
2022/11/18 12:39:57;;;;;;;11.40;8.37;;;11.80;99.90;;;;;;5040656;28;20292;-68
2022/11/18 12:45:39;;;;;;;12.40;8.23;;;11.70;99.90;;;;;;5042222;28;20215;-69
2022/11/18 12:48:35;;;;;;;11.47;8.23;;;11.70;99.90;;;;;;5048275;28;20209;-69
2022/11/18 12:51:14;;;;;;;17.17;8.43;;;11.70;99.90;;;;;;5038297;28;20217;-69
2022/11/18 12:53:43;;;;;;;12.73;9.03;;;11.70;99.90;;;;;;5039426;28;20206;-69
2022/11/18 12:56:16;;;;;;;13.80;8.33;;;11.60;99.90;;;;;;5025368;28;20209;-69
2022/11/18 12:58:51;;;;;;;11.43;8.37;;;11.50;99.90;;;;;;5042149;28;20239;-69
2022/11/18 13:01:23;;;;;;;10.63;7.97;;;11.40;99.90;;;;;;5042970;28;20224;-70
2022/11/18 13:03:51;;;;;;;14.40;8.90;;;11.30;99.90;;;;;;5045537;28;20212;-69
2022/11/18 13:06:31;;;;;;;10.70;8.50;;;11.30;99.90;;;;;;5042873;28;20607;-69
2022/11/18 13:09:01;;;;;;;17.60;8.93;;;11.30;99.90;;;;;;5042335;28;20259;-68
2022/11/18 13:11:45;;;;;;;16.43;9.93;;;11.20;99.90;;;;;;5043973;28;20208;-70
2022/11/18 13:20:32;;;;;;;15.93;9.30;;;11.40;99.90;;;;;;5042041;28;20209;-68
2022/11/18 13:25:47;;;;;;;16.27;9.73;;;11.40;99.90;;;;;;5037036;28;20209;-69
2022/11/18 13:28:31;;;;;;;15.60;8.70;;;11.40;99.90;;;;;;5031811;28;20205;-69
2022/11/18 13:31:13;;;;;;;16.93;8.57;;;11.40;99.90;;;;;;5034766;28;20201;-68
2022/11/18 13:33:39;;;;;;;13.67;8.47;;;11.30;99.90;;;;;;5042751;28;20294;-69
2022/11/18 13:36:26;;;;;;;18.27;9.50;;;11.30;99.90;;;;;;5043266;28;20232;-69